Mt Bomar Mars — 9HCM9 — position and weather

sailwx.info

Track history (hours):
 
Tides and Currents Weather Stations Pressure Air Temp Water Temp Dewpoint Dewpoint Depression Visibility Wind Speed Wind Dir Waves Ship Positions

Mt Bomar Mars

Last reported at 2016-Feb-09 03:34 UTC. Time now 2016-Feb-09 15:53 UTC.
Position N 36°56' W 007°33'.

Length 107 m; draft 5.5 m.

Type: Ship. MMSI: 256784000.

Date/timePositionNaut miles runAvg speedWind from/ knotsBaromVisibWave heightAir tempDewpointWater temp
2016-Feb-09 03:34N 36°56' W 007°33'1312.4
2016-Feb-09 02:33N 36°52' W 007°48'1212.4
2016-Feb-09 01:33N 36°50' W 008°03'1212.3
2016-Feb-09 00:33N 36°50' W 008°19'1212.2
2016-Feb-08 23:33N 36°50' W 008°34'1211.9
2016-Feb-08 22:33N 36°49' W 008°49'1312.3
2016-Feb-08 21:29N 36°51' W 009°05'1111.6
2016-Feb-08 20:32N 36°60' W 009°13'1212.2
2016-Feb-08 19:32N 37°12' W 009°16'1211.9
2016-Feb-08 18:32N 37°24' W 009°18'1111.2
2016-Feb-08 17:33N 37°34' W 009°21'1212.5
2016-Feb-08 16:33N 37°47' W 009°24'1212.3
2016-Feb-08 15:33N 37°59' W 009°26'1212.0
2016-Feb-08 14:33N 38°11' W 009°29'1212.0
2016-Feb-08 13:33N 38°22' W 009°31'1211.6
2016-Feb-08 12:33N 38°34' W 009°27'1110.9
2016-Feb-08 11:34N 38°41' W 009°17'9 9.0
2016-Feb-08 10:33N 38°41' W 009°05'1 1.2
2016-Feb-08 09:32N 38°41' W 009°04'0 0.0
2016-Feb-08 08:32N 38°41' W 009°04'0 0.0
2016-Feb-08 07:32N 38°41' W 009°04'0 0.0
2016-Feb-08 06:32N 38°41' W 009°04'0 0.0
2016-Feb-08 05:31N 38°41' W 009°04'0 0.0
2016-Feb-08 04:32N 38°41' W 009°04'0 0.0
2016-Feb-08 03:32N 38°41' W 009°04'0 0.0
2016-Feb-08 02:32N 38°41' W 009°04'0 0.0
2016-Feb-08 01:32N 38°41' W 009°04'0 0.0
2016-Feb-08 00:32N 38°41' W 009°04'0 0.0
2016-Feb-07 23:32N 38°41' W 009°04'0 0.0
2016-Feb-07 22:32N 38°41' W 009°04'0 0.0
2016-Feb-07 21:32N 38°41' W 009°04'0 0.0
2016-Feb-07 20:32N 38°41' W 009°04'0 0.0
2016-Feb-07 19:31N 38°41' W 009°04'0 0.0
2016-Feb-07 18:32N 38°41' W 009°04'0 0.0
2016-Feb-07 17:32N 38°41' W 009°04'0 0.0
2016-Feb-07 16:32N 38°41' W 009°04'0 0.0
2016-Feb-07 15:32N 38°41' W 009°04'0 0.0
2016-Feb-07 14:31N 38°41' W 009°04'8 8.1
2016-Feb-07 13:34N 38°41' W 009°14'7 7.4
2016-Feb-07 12:34N 38°41' W 009°23'4 3.9
2016-Feb-07 11:34N 38°39' W 009°27'7 7.3
2016-Feb-07 10:33N 38°32' W 009°31'5 4.5
2016-Feb-07 09:34N 38°27' W 009°31'1 0.8
2016-Feb-07 08:33N 38°27' W 009°30'0 0.4
2016-Feb-07 07:33N 38°27' W 009°30'1 1.3
2016-Feb-07 06:33N 38°27' W 009°31'1 1.2
2016-Feb-07 05:33N 38°28' W 009°33'1 1.1
2016-Feb-07 04:33N 38°28' W 009°34'1 1.2
2016-Feb-07 03:33N 38°29' W 009°35'1 1.3
2016-Feb-07 02:34N 38°30' W 009°37'2 1.8
2016-Feb-07 01:33N 38°30' W 009°34'6 5.9
2016-Feb-07 00:32N 38°30' W 009°27'1 1.3
2016-Feb-06 23:34N 38°30' W 009°28'1 1.2
2016-Feb-06 22:33N 38°31' W 009°30'2 1.5
2016-Feb-06 21:34N 38°30' W 009°32'2 1.7
2016-Feb-06 20:33N 38°30' W 009°34'2 1.5
2016-Feb-06 19:33N 38°30' W 009°36'2 1.8
2016-Feb-06 18:33N 38°29' W 009°34'7 6.8
2016-Feb-06 17:33N 38°28' W 009°25'2 1.7
2016-Feb-06 16:33N 38°28' W 009°28'2 1.7
2016-Feb-06 15:33N 38°28' W 009°30'1 1.4
2016-Feb-06 14:33N 38°28' W 009°31'4 4.4
2016-Feb-06 13:33N 38°28' W 009°26'1 1.2
2016-Feb-06 12:32N 38°28' W 009°27'1 0.9
2016-Feb-06 11:33N 38°28' W 009°28'1 0.8
2016-Feb-06 10:33N 38°28' W 009°29'1 0.8
2016-Feb-06 09:33N 38°28' W 009°30'1 0.8
2016-Feb-06 08:32N 38°28' W 009°31'1 0.6
2016-Feb-06 07:33N 38°28' W 009°32'0 0.3
2016-Feb-06 06:33N 38°28' W 009°32'0 0.2
2016-Feb-06 05:33N 38°28' W 009°33'0 0.2
2016-Feb-06 04:33N 38°28' W 009°32'0 0.1
2016-Feb-06 03:33N 38°28' W 009°32'0 0.2
2016-Feb-06 02:34N 38°29' W 009°32'0 0.5
2016-Feb-06 01:33N 38°29' W 009°32'0 0.5
2016-Feb-06 00:33N 38°29' W 009°32'4 3.8
2016-Feb-05 23:33N 38°30' W 009°37'1211.7
2016-Feb-05 22:32N 38°32' W 009°52'1313.2
2016-Feb-05 21:32N 38°35' W 010°09'1212.5
2016-Feb-05 20:32N 38°47' W 010°11'1111.0
2016-Feb-05 19:33N 38°57' W 010°09'1413.4
2016-Feb-05 18:29N 39°11' W 010°01'1112.0
2016-Feb-05 17:32N 39°21' W 009°56'1211.6
2016-Feb-05 16:32N 39°32' W 009°50'1313.3
2016-Feb-05 15:32N 39°44' W 009°41'3612.1
2016-Feb-05 12:32N 40°14' W 009°17'1211.7
2016-Feb-05 11:32N 40°24' W 009°08'1111.0
2016-Feb-05 10:33N 40°32' W 008°59'1211.7
2016-Feb-05 09:33N 40°39' W 008°46'3 2.7
2016-Feb-05 08:32N 40°39' W 008°42'0 0.0
2016-Feb-05 07:32N 40°39' W 008°42'0 0.0
2016-Feb-05 06:26N 40°39' W 008°42'0 0.0
2016-Feb-05 05:32N 40°39' W 008°42'0 0.0
2016-Feb-05 04:32N 40°39' W 008°42'0 0.0
2016-Feb-05 03:32N 40°39' W 008°42'0 0.0
2016-Feb-05 02:29N 40°39' W 008°42'0 0.0
2016-Feb-05 01:33N 40°39' W 008°42'0 0.0
2016-Feb-05 00:20N 40°39' W 008°42'0 0.0
2016-Feb-04 23:32N 40°39' W 008°42'0 0.0
2016-Feb-04 22:32N 40°39' W 008°42'0 0.0
2016-Feb-04 21:29N 40°39' W 008°42'0 0.0
2016-Feb-04 20:29N 40°39' W 008°42'0 0.0
2016-Feb-04 19:32N 40°39' W 008°42'0 0.0
2016-Feb-04 18:14N 40°39' W 008°42'0 0.0
2016-Feb-04 17:32N 40°39' W 008°42'0 0.0
2016-Feb-04 16:32N 40°39' W 008°42'0 0.0
2016-Feb-04 15:32N 40°39' W 008°42'0 0.0
2016-Feb-04 14:32N 40°39' W 008°42'0 0.0
2016-Feb-04 13:32N 40°39' W 008°42'0 0.2
2016-Feb-04 12:18N 40°40' W 008°43'4 5.8
2016-Feb-04 11:32N 40°39' W 008°49'3 2.7
2016-Feb-04 10:33N 40°40' W 008°52'1211.7
2016-Feb-04 09:33N 40°51' W 008°54'1211.7
2016-Feb-04 08:33N 41°02' W 009°00'1211.5
2016-Feb-04 07:33N 41°12' W 009°07'1111.5
2016-Feb-04 06:33N 41°22' W 009°14'1212.1
2016-Feb-04 05:32N 41°33' W 009°21'1010.4
2016-Feb-04 04:32N 41°43' W 009°27'1211.8
2016-Feb-04 03:32N 41°54' W 009°33'  
2016-Jan-31 18:33N 53°34' W 003°49'1111.0
2016-Jan-31 17:33N 53°34' W 003°31'9 9.1
2016-Jan-31 16:33N 53°32' W 003°16'9 8.6
2016-Jan-31 15:33N 53°28' W 003°03'9 9.4
2016-Jan-31 14:33N 53°19' W 002°57'0 0.0
2016-Jan-31 13:34N 53°19' W 002°57'4 3.8
2016-Jan-31 12:33N 53°17' W 002°52'4 4.5
2016-Jan-31 11:33N 53°20' W 002°46'0 0.1
2016-Jan-31 09:05N 53°20' W 002°45'0 0.0
2016-Jan-31 08:29N 53°20' W 002°45'0 0.0
2016-Jan-31 04:29N 53°20' W 002°45'0 0.0
2016-Jan-31 03:29N 53°20' W 002°45'0 0.0
2016-Jan-31 02:29N 53°20' W 002°45'0 0.0
2016-Jan-31 01:29N 53°20' W 002°45'0 0.0
2016-Jan-31 00:29N 53°20' W 002°45'0 0.0
2016-Jan-30 22:17N 53°20' W 002°45'0 0.0
2016-Jan-30 21:32N 53°20' W 002°45'0 0.0
2016-Jan-30 20:29N 53°20' W 002°45'0 0.0
2016-Jan-30 19:29N 53°20' W 002°45'0 0.0
2016-Jan-30 17:33N 53°20' W 002°45'5 5.5
2016-Jan-30 16:33N 53°17' W 002°53'4 3.7
2016-Jan-30 15:34N 53°20' W 002°57'2 2.0
2016-Jan-30 14:33N 53°22' W 002°58'4 4.2
2016-Jan-30 13:33N 53°26' W 003°01'1010.2
2016-Jan-30 12:33N 53°31' W 003°16'1313.4
2016-Jan-30 11:33N 53°30' W 003°38'1313.3
2016-Jan-30 10:33N 53°27' W 003°59'  
Track history (hours):
 
Tides and Currents Weather Stations Pressure Air Temp Water Temp Dewpoint Dewpoint Depression Visibility Wind Speed Wind Dir Waves Ship Positions

Mt Bomar Mars

Last reported at 2016-Feb-09 03:34 UTC. Time now 2016-Feb-09 15:53 UTC.
Position N 36°56' W 007°33'.

Length 107 m; draft 5.5 m.

Type: Ship. MMSI: 256784000.

Date/timePositionNaut miles runAvg speedWind from/ knotsBaromVisibWave heightAir tempDewpointWater temp
2016-Feb-09 03:34N 36°56' W 007°33'1312.4
2016-Feb-09 02:33N 36°52' W 007°48'1212.4
2016-Feb-09 01:33N 36°50' W 008°03'1212.3
2016-Feb-09 00:33N 36°50' W 008°19'1212.2
2016-Feb-08 23:33N 36°50' W 008°34'1211.9
2016-Feb-08 22:33N 36°49' W 008°49'1312.3
2016-Feb-08 21:29N 36°51' W 009°05'1111.6
2016-Feb-08 20:32N 36°60' W 009°13'1212.2
2016-Feb-08 19:32N 37°12' W 009°16'1211.9
2016-Feb-08 18:32N 37°24' W 009°18'1111.2
2016-Feb-08 17:33N 37°34' W 009°21'1212.5
2016-Feb-08 16:33N 37°47' W 009°24'1212.3
2016-Feb-08 15:33N 37°59' W 009°26'1212.0
2016-Feb-08 14:33N 38°11' W 009°29'1212.0
2016-Feb-08 13:33N 38°22' W 009°31'1211.6
2016-Feb-08 12:33N 38°34' W 009°27'1110.9
2016-Feb-08 11:34N 38°41' W 009°17'9 9.0
2016-Feb-08 10:33N 38°41' W 009°05'1 1.2
2016-Feb-08 09:32N 38°41' W 009°04'0 0.0
2016-Feb-08 08:32N 38°41' W 009°04'0 0.0
2016-Feb-08 07:32N 38°41' W 009°04'0 0.0
2016-Feb-08 06:32N 38°41' W 009°04'0 0.0
2016-Feb-08 05:31N 38°41' W 009°04'0 0.0
2016-Feb-08 04:32N 38°41' W 009°04'0 0.0
2016-Feb-08 03:32N 38°41' W 009°04'0 0.0
2016-Feb-08 02:32N 38°41' W 009°04'0 0.0
2016-Feb-08 01:32N 38°41' W 009°04'0 0.0
2016-Feb-08 00:32N 38°41' W 009°04'0 0.0
2016-Feb-07 23:32N 38°41' W 009°04'0 0.0
2016-Feb-07 22:32N 38°41' W 009°04'0 0.0
2016-Feb-07 21:32N 38°41' W 009°04'0 0.0
2016-Feb-07 20:32N 38°41' W 009°04'0 0.0
2016-Feb-07 19:31N 38°41' W 009°04'0 0.0
2016-Feb-07 18:32N 38°41' W 009°04'0 0.0
2016-Feb-07 17:32N 38°41' W 009°04'0 0.0
2016-Feb-07 16:32N 38°41' W 009°04'0 0.0
2016-Feb-07 15:32N 38°41' W 009°04'0 0.0
2016-Feb-07 14:31N 38°41' W 009°04'8 8.1
2016-Feb-07 13:34N 38°41' W 009°14'7 7.4
2016-Feb-07 12:34N 38°41' W 009°23'4 3.9
2016-Feb-07 11:34N 38°39' W 009°27'7 7.3
2016-Feb-07 10:33N 38°32' W 009°31'5 4.5
2016-Feb-07 09:34N 38°27' W 009°31'1 0.8
2016-Feb-07 08:33N 38°27' W 009°30'0 0.4
2016-Feb-07 07:33N 38°27' W 009°30'1 1.3
2016-Feb-07 06:33N 38°27' W 009°31'1 1.2
2016-Feb-07 05:33N 38°28' W 009°33'1 1.1
2016-Feb-07 04:33N 38°28' W 009°34'1 1.2
2016-Feb-07 03:33N 38°29' W 009°35'1 1.3
2016-Feb-07 02:34N 38°30' W 009°37'2 1.8
2016-Feb-07 01:33N 38°30' W 009°34'6 5.9
2016-Feb-07 00:32N 38°30' W 009°27'1 1.3
2016-Feb-06 23:34N 38°30' W 009°28'1 1.2
2016-Feb-06 22:33N 38°31' W 009°30'2 1.5
2016-Feb-06 21:34N 38°30' W 009°32'2 1.7
2016-Feb-06 20:33N 38°30' W 009°34'2 1.5
2016-Feb-06 19:33N 38°30' W 009°36'2 1.8
2016-Feb-06 18:33N 38°29' W 009°34'7 6.8
2016-Feb-06 17:33N 38°28' W 009°25'2 1.7
2016-Feb-06 16:33N 38°28' W 009°28'2 1.7
2016-Feb-06 15:33N 38°28' W 009°30'1 1.4
2016-Feb-06 14:33N 38°28' W 009°31'4 4.4
2016-Feb-06 13:33N 38°28' W 009°26'1 1.2
2016-Feb-06 12:32N 38°28' W 009°27'1 0.9
2016-Feb-06 11:33N 38°28' W 009°28'1 0.8
2016-Feb-06 10:33N 38°28' W 009°29'1 0.8
2016-Feb-06 09:33N 38°28' W 009°30'1 0.8
2016-Feb-06 08:32N 38°28' W 009°31'1 0.6
2016-Feb-06 07:33N 38°28' W 009°32'0 0.3
2016-Feb-06 06:33N 38°28' W 009°32'0 0.2
2016-Feb-06 05:33N 38°28' W 009°33'0 0.2
2016-Feb-06 04:33N 38°28' W 009°32'0 0.1
2016-Feb-06 03:33N 38°28' W 009°32'0 0.2
2016-Feb-06 02:34N 38°29' W 009°32'0 0.5
2016-Feb-06 01:33N 38°29' W 009°32'0 0.5
2016-Feb-06 00:33N 38°29' W 009°32'4 3.8
2016-Feb-05 23:33N 38°30' W 009°37'1211.7
2016-Feb-05 22:32N 38°32' W 009°52'1313.2
2016-Feb-05 21:32N 38°35' W 010°09'1212.5
2016-Feb-05 20:32N 38°47' W 010°11'1111.0
2016-Feb-05 19:33N 38°57' W 010°09'1413.4
2016-Feb-05 18:29N 39°11' W 010°01'1112.0
2016-Feb-05 17:32N 39°21' W 009°56'1211.6
2016-Feb-05 16:32N 39°32' W 009°50'1313.3
2016-Feb-05 15:32N 39°44' W 009°41'3612.1
2016-Feb-05 12:32N 40°14' W 009°17'1211.7
2016-Feb-05 11:32N 40°24' W 009°08'1111.0
2016-Feb-05 10:33N 40°32' W 008°59'1211.7
2016-Feb-05 09:33N 40°39' W 008°46'3 2.7
2016-Feb-05 08:32N 40°39' W 008°42'0 0.0
2016-Feb-05 07:32N 40°39' W 008°42'0 0.0
2016-Feb-05 06:26N 40°39' W 008°42'0 0.0
2016-Feb-05 05:32N 40°39' W 008°42'0 0.0
2016-Feb-05 04:32N 40°39' W 008°42'0 0.0
2016-Feb-05 03:32N 40°39' W 008°42'0 0.0
2016-Feb-05 02:29N 40°39' W 008°42'0 0.0
2016-Feb-05 01:33N 40°39' W 008°42'0 0.0
2016-Feb-05 00:20N 40°39' W 008°42'0 0.0
2016-Feb-04 23:32N 40°39' W 008°42'0 0.0
2016-Feb-04 22:32N 40°39' W 008°42'0 0.0
2016-Feb-04 21:29N 40°39' W 008°42'0 0.0
2016-Feb-04 20:29N 40°39' W 008°42'0 0.0
2016-Feb-04 19:32N 40°39' W 008°42'0 0.0
2016-Feb-04 18:14N 40°39' W 008°42'0 0.0
2016-Feb-04 17:32N 40°39' W 008°42'0 0.0
2016-Feb-04 16:32N 40°39' W 008°42'0 0.0
2016-Feb-04 15:32N 40°39' W 008°42'0 0.0
2016-Feb-04 14:32N 40°39' W 008°42'0 0.0
2016-Feb-04 13:32N 40°39' W 008°42'0 0.2
2016-Feb-04 12:18N 40°40' W 008°43'4 5.8
2016-Feb-04 11:32N 40°39' W 008°49'3 2.7
2016-Feb-04 10:33N 40°40' W 008°52'1211.7
2016-Feb-04 09:33N 40°51' W 008°54'1211.7
2016-Feb-04 08:33N 41°02' W 009°00'1211.5
2016-Feb-04 07:33N 41°12' W 009°07'1111.5
2016-Feb-04 06:33N 41°22' W 009°14'1212.1
2016-Feb-04 05:32N 41°33' W 009°21'1010.4
2016-Feb-04 04:32N 41°43' W 009°27'1211.8
2016-Feb-04 03:32N 41°54' W 009°33'  
2016-Jan-31 18:33N 53°34' W 003°49'1111.0
2016-Jan-31 17:33N 53°34' W 003°31'9 9.1
2016-Jan-31 16:33N 53°32' W 003°16'9 8.6
2016-Jan-31 15:33N 53°28' W 003°03'9 9.4
2016-Jan-31 14:33N 53°19' W 002°57'0 0.0
2016-Jan-31 13:34N 53°19' W 002°57'4 3.8
2016-Jan-31 12:33N 53°17' W 002°52'4 4.5
2016-Jan-31 11:33N 53°20' W 002°46'0 0.1
2016-Jan-31 09:05N 53°20' W 002°45'0 0.0
2016-Jan-31 08:29N 53°20' W 002°45'0 0.0
2016-Jan-31 04:29N 53°20' W 002°45'0 0.0
2016-Jan-31 03:29N 53°20' W 002°45'0 0.0
2016-Jan-31 02:29N 53°20' W 002°45'0 0.0
2016-Jan-31 01:29N 53°20' W 002°45'0 0.0
2016-Jan-31 00:29N 53°20' W 002°45'0 0.0
2016-Jan-30 22:17N 53°20' W 002°45'0 0.0
2016-Jan-30 21:32N 53°20' W 002°45'0 0.0
2016-Jan-30 20:29N 53°20' W 002°45'0 0.0
2016-Jan-30 19:29N 53°20' W 002°45'0 0.0
2016-Jan-30 17:33N 53°20' W 002°45'5 5.5
2016-Jan-30 16:33N 53°17' W 002°53'4 3.7
2016-Jan-30 15:34N 53°20' W 002°57'2 2.0
2016-Jan-30 14:33N 53°22' W 002°58'4 4.2
2016-Jan-30 13:33N 53°26' W 003°01'1010.2
2016-Jan-30 12:33N 53°31' W 003°16'1313.4
2016-Jan-30 11:33N 53°30' W 003°38'1313.3
2016-Jan-30 10:33N 53°27' W 003°59'  

Dump ship's entire track history